Página principal
METAR-TAF:

METAR-TAF

Aeroportos :

Semei, Cazaquistão

latitude: 50-21-05N, longitude: 080-14-04E, altura: 232 m

Observação actual do tempo

O boletim foi feito há 1 hora e 19 minutos, às 11:30 UTC
Vento 6 kt de su-sudeste
Temperatura -15°C
Humidade 92%
Pressão 1028 hPa
Visibilidade 10 km ou mais
Nuvens dispersasa uma altura de 2300 ft

METAR: UASS 181130Z 15003MPS 9999 SCT023 M15/M16 Q1028 R08/493032 NOSIG RMK QFE749/0999

Hora: 18:49 (12:49 UTC)

Previsão

O boletim foi feito há 1 hora e 49 minutos, às 11:00 UTC
Previsão válida de 18 às 12 UTC a 18 às 21 UTC
Vento 4 kt com direcção variável
Visibilidade 10 km ou mais
Nuvens dispersasa uma altura de 2000 ft
Temporariamente
de 18 às 12 UTC a 18 às 18 UTC
Nuvens dispersasa uma altura de 1000 ft

TAF: UASS 181100Z 1812/1821 VRB02MPS 9999 SCT020 TEMPO 1812/1818 SCT010

Observações e previsões do tempo de mais de 4000 aeroportos (mensagens METAR e TAF).

As estações disponíveis são os pontos amarelos e vermelhos sobre o mapa.

Mova o rato sobre o mapa para ver o nome da estação.

Depois clique no ponto para visualizar as observações e previsões meteorológicas.

Para alterar o mapa : clique nos botões verdes com uma cruz preta para aumentar o zoom; no botão verde com uma pitada de zoom; ou nas setas verdes para mapas adjacentes.


METAR-TAF: